sensor_id;sensor_type;location;lat;lon;timestamp;P1;durP1;ratioP1;P2;durP2;ratioP2
68923;SDS011;55961;52.156;20.942;2022-12-07T00:00:55;65.13;;;27.50;;
68923;SDS011;55961;52.156;20.942;2022-12-07T00:03:33;67.55;;;30.75;;
68923;SDS011;55961;52.156;20.942;2022-12-07T00:06:00;69.43;;;32.53;;
68923;SDS011;55961;52.156;20.942;2022-12-07T00:08:28;69.05;;;29.85;;
68923;SDS011;55961;52.156;20.942;2022-12-07T00:10:53;72.37;;;30.67;;
68923;SDS011;55961;52.156;20.942;2022-12-07T00:13:20;67.70;;;29.00;;
68923;SDS011;55961;52.156;20.942;2022-12-07T00:15:46;70.78;;;28.60;;
68923;SDS011;55961;52.156;20.942;2022-12-07T00:18:12;69.40;;;28.13;;
68923;SDS011;55961;52.156;20.942;2022-12-07T00:20:37;71.63;;;29.73;;
68923;SDS011;55961;52.156;20.942;2022-12-07T00:23:03;68.47;;;27.80;;
68923;SDS011;55961;52.156;20.942;2022-12-07T00:25:29;58.50;;;25.63;;
68923;SDS011;55961;52.156;20.942;2022-12-07T00:27:56;55.00;;;22.77;;
68923;SDS011;55961;52.156;20.942;2022-12-07T00:30:22;52.72;;;22.02;;
68923;SDS011;55961;52.156;20.942;2022-12-07T00:32:48;56.22;;;21.80;;
68923;SDS011;55961;52.156;20.942;2022-12-07T00:35:14;50.33;;;20.92;;
68923;SDS011;55961;52.156;20.942;2022-12-07T00:37:41;49.93;;;20.23;;
68923;SDS011;55961;52.156;20.942;2022-12-07T00:40:06;49.92;;;21.98;;
68923;SDS011;55961;52.156;20.942;2022-12-07T00:42:33;51.55;;;20.35;;
68923;SDS011;55961;52.156;20.942;2022-12-07T00:44:58;47.83;;;19.83;;
68923;SDS011;55961;52.156;20.942;2022-12-07T00:47:24;53.80;;;21.95;;
68923;SDS011;55961;52.156;20.942;2022-12-07T00:49:50;54.70;;;22.52;;
68923;SDS011;55961;52.156;20.942;2022-12-07T00:52:16;49.07;;;21.63;;
68923;SDS011;55961;52.156;20.942;2022-12-07T00:54:42;49.42;;;20.83;;
68923;SDS011;55961;52.156;20.942;2022-12-07T00:57:09;51.95;;;22.95;;
68923;SDS011;55961;52.156;20.942;2022-12-07T00:59:35;46.07;;;20.43;;
68923;SDS011;55961;52.156;20.942;2022-12-07T01:02:01;43.55;;;18.00;;
68923;SDS011;55961;52.156;20.942;2022-12-07T01:04:27;45.97;;;20.88;;
68923;SDS011;55961;52.156;20.942;2022-12-07T01:06:53;28.85;;;13.70;;
68923;SDS011;55961;52.156;20.942;2022-12-07T01:09:18;40.40;;;18.23;;
68923;SDS011;55961;52.156;20.942;2022-12-07T01:11:44;49.67;;;20.38;;
68923;SDS011;55961;52.156;20.942;2022-12-07T01:14:10;45.63;;;20.03;;
68923;SDS011;55961;52.156;20.942;2022-12-07T01:16:36;46.20;;;19.23;;
68923;SDS011;55961;52.156;20.942;2022-12-07T01:19:04;45.55;;;18.17;;
68923;SDS011;55961;52.156;20.942;2022-12-07T01:21:31;30.67;;;14.70;;
68923;SDS011;55961;52.156;20.942;2022-12-07T01:24:00;26.38;;;12.18;;
68923;SDS011;55961;52.156;20.942;2022-12-07T01:26:27;27.87;;;11.83;;
68923;SDS011;55961;52.156;20.942;2022-12-07T01:28:53;30.92;;;12.68;;
68923;SDS011;55961;52.156;20.942;2022-12-07T01:31:21;24.73;;;10.88;;
68923;SDS011;55961;52.156;20.942;2022-12-07T01:33:57;24.23;;;10.57;;
68923;SDS011;55961;52.156;20.942;2022-12-07T01:36:25;28.30;;;11.50;;
68923;SDS011;55961;52.156;20.942;2022-12-07T01:38:53;28.63;;;9.57;;
68923;SDS011;55961;52.156;20.942;2022-12-07T01:41:22;17.58;;;7.00;;
68923;SDS011;55961;52.156;20.942;2022-12-07T01:46:41;21.02;;;9.30;;
68923;SDS011;55961;52.156;20.942;2022-12-07T01:49:13;22.50;;;9.57;;
68923;SDS011;55961;52.156;20.942;2022-12-07T01:51:43;23.65;;;10.15;;
68923;SDS011;55961;52.156;20.942;2022-12-07T01:54:10;16.17;;;7.38;;
68923;SDS011;55961;52.156;20.942;2022-12-07T01:56:38;25.05;;;9.23;;
68923;SDS011;55961;52.156;20.942;2022-12-07T01:59:08;24.92;;;11.35;;
68923;SDS011;55961;52.156;20.942;2022-12-07T02:01:34;24.37;;;9.17;;
68923;SDS011;55961;52.156;20.942;2022-12-07T02:03:59;19.42;;;8.23;;
68923;SDS011;55961;52.156;20.942;2022-12-07T02:06:26;20.98;;;8.30;;
68923;SDS011;55961;52.156;20.942;2022-12-07T02:08:52;19.73;;;8.53;;
68923;SDS011;55961;52.156;20.942;2022-12-07T02:11:19;17.75;;;7.45;;
68923;SDS011;55961;52.156;20.942;2022-12-07T02:13:46;18.92;;;8.00;;
68923;SDS011;55961;52.156;20.942;2022-12-07T02:30:10;19.98;;;9.15;;
68923;SDS011;55961;52.156;20.942;2022-12-07T02:32:50;14.13;;;6.27;;
68923;SDS011;55961;52.156;20.942;2022-12-07T02:35:40;16.02;;;7.88;;
68923;SDS011;55961;52.156;20.942;2022-12-07T02:43:57;20.55;;;8.90;;
68923;SDS011;55961;52.156;20.942;2022-12-07T02:46:33;21.83;;;9.87;;
68923;SDS011;55961;52.156;20.942;2022-12-07T02:49:05;15.05;;;7.00;;
68923;SDS011;55961;52.156;20.942;2022-12-07T02:51:33;11.45;;;4.82;;
68923;SDS011;55961;52.156;20.942;2022-12-07T02:54:07;24.88;;;9.13;;
68923;SDS011;55961;52.156;20.942;2022-12-07T03:04:13;11.15;;;5.32;;
68923;SDS011;55961;52.156;20.942;2022-12-07T03:06:45;14.32;;;5.90;;
68923;SDS011;55961;52.156;20.942;2022-12-07T03:09:22;9.75;;;4.13;;
68923;SDS011;55961;52.156;20.942;2022-12-07T03:12:15;8.13;;;3.27;;
68923;SDS011;55961;52.156;20.942;2022-12-07T03:14:47;10.00;;;3.72;;
68923;SDS011;55961;52.156;20.942;2022-12-07T03:17:24;6.80;;;2.88;;
68923;SDS011;55961;52.156;20.942;2022-12-07T03:19:54;7.22;;;2.42;;
68923;SDS011;55961;52.156;20.942;2022-12-07T03:22:25;7.95;;;3.70;;
68923;SDS011;55961;52.156;20.942;2022-12-07T03:25:00;9.50;;;3.20;;
68923;SDS011;55961;52.156;20.942;2022-12-07T03:27:32;8.25;;;3.85;;
68923;SDS011;55961;52.156;20.942;2022-12-07T03:30:24;8.82;;;3.40;;
68923;SDS011;55961;52.156;20.942;2022-12-07T03:35:28;9.68;;;4.32;;
68923;SDS011;55961;52.156;20.942;2022-12-07T03:38:05;9.17;;;4.30;;
68923;SDS011;55961;52.156;20.942;2022-12-07T03:40:53;10.35;;;4.38;;
68923;SDS011;55961;52.156;20.942;2022-12-07T03:43:20;7.53;;;2.13;;
68923;SDS011;55961;52.156;20.942;2022-12-07T03:48:46;9.75;;;3.08;;
68923;SDS011;55961;52.156;20.942;2022-12-07T03:53:54;8.70;;;4.05;;
68923;SDS011;55961;52.156;20.942;2022-12-07T03:56:25;9.27;;;3.55;;
68923;SDS011;55961;52.156;20.942;2022-12-07T03:58:54;8.93;;;4.15;;
68923;SDS011;55961;52.156;20.942;2022-12-07T04:01:20;10.20;;;4.13;;
68923;SDS011;55961;52.156;20.942;2022-12-07T04:03:47;6.53;;;2.73;;
68923;SDS011;55961;52.156;20.942;2022-12-07T04:06:13;10.35;;;4.07;;
68923;SDS011;55961;52.156;20.942;2022-12-07T04:08:39;8.07;;;3.33;;
68923;SDS011;55961;52.156;20.942;2022-12-07T04:11:05;10.27;;;5.03;;
68923;SDS011;55961;52.156;20.942;2022-12-07T04:13:31;5.47;;;2.37;;
68923;SDS011;55961;52.156;20.942;2022-12-07T04:16:17;5.68;;;2.33;;
68923;SDS011;55961;52.156;20.942;2022-12-07T04:18:42;6.97;;;2.80;;
68923;SDS011;55961;52.156;20.942;2022-12-07T04:21:08;7.40;;;3.97;;
68923;SDS011;55961;52.156;20.942;2022-12-07T04:23:34;11.25;;;5.00;;
68923;SDS011;55961;52.156;20.942;2022-12-07T04:26:02;10.97;;;4.73;;
68923;SDS011;55961;52.156;20.942;2022-12-07T04:28:28;13.77;;;5.35;;
68923;SDS011;55961;52.156;20.942;2022-12-07T04:30:54;13.18;;;5.43;;
68923;SDS011;55961;52.156;20.942;2022-12-07T04:33:20;12.77;;;6.20;;
68923;SDS011;55961;52.156;20.942;2022-12-07T04:35:46;9.25;;;4.03;;
68923;SDS011;55961;52.156;20.942;2022-12-07T04:38:11;15.43;;;7.85;;
68923;SDS011;55961;52.156;20.942;2022-12-07T04:40:37;17.87;;;7.77;;
68923;SDS011;55961;52.156;20.942;2022-12-07T04:43:03;13.52;;;6.20;;
68923;SDS011;55961;52.156;20.942;2022-12-07T04:45:30;13.88;;;7.25;;
68923;SDS011;55961;52.156;20.942;2022-12-07T04:47:55;15.73;;;7.77;;
68923;SDS011;55961;52.156;20.942;2022-12-07T04:50:21;16.05;;;7.65;;
68923;SDS011;55961;52.156;20.942;2022-12-07T04:52:56;15.37;;;7.10;;
68923;SDS011;55961;52.156;20.942;2022-12-07T04:55:28;12.98;;;6.03;;
68923;SDS011;55961;52.156;20.942;2022-12-07T04:57:54;13.30;;;6.47;;
68923;SDS011;55961;52.156;20.942;2022-12-07T05:00:20;13.70;;;6.83;;
68923;SDS011;55961;52.156;20.942;2022-12-07T05:02:45;13.13;;;5.65;;
68923;SDS011;55961;52.156;20.942;2022-12-07T05:05:12;14.55;;;6.50;;
68923;SDS011;55961;52.156;20.942;2022-12-07T05:07:37;8.40;;;3.83;;
68923;SDS011;55961;52.156;20.942;2022-12-07T05:10:04;11.68;;;5.57;;
68923;SDS011;55961;52.156;20.942;2022-12-07T05:12:30;14.35;;;6.47;;
68923;SDS011;55961;52.156;20.942;2022-12-07T05:14:56;14.77;;;6.00;;
68923;SDS011;55961;52.156;20.942;2022-12-07T05:17:22;15.30;;;6.47;;
68923;SDS011;55961;52.156;20.942;2022-12-07T05:19:48;14.63;;;6.50;;
68923;SDS011;55961;52.156;20.942;2022-12-07T05:22:14;15.77;;;6.35;;
68923;SDS011;55961;52.156;20.942;2022-12-07T05:24:40;12.77;;;5.50;;
68923;SDS011;55961;52.156;20.942;2022-12-07T05:27:06;15.05;;;6.68;;
68923;SDS011;55961;52.156;20.942;2022-12-07T05:29:32;14.52;;;6.93;;
68923;SDS011;55961;52.156;20.942;2022-12-07T05:31:58;13.20;;;5.87;;
68923;SDS011;55961;52.156;20.942;2022-12-07T05:34:24;18.17;;;8.00;;
68923;SDS011;55961;52.156;20.942;2022-12-07T05:36:50;17.48;;;7.72;;
68923;SDS011;55961;52.156;20.942;2022-12-07T05:39:16;16.33;;;9.23;;
68923;SDS011;55961;52.156;20.942;2022-12-07T05:41:41;21.10;;;11.73;;
68923;SDS011;55961;52.156;20.942;2022-12-07T05:44:26;14.55;;;6.95;;
68923;SDS011;55961;52.156;20.942;2022-12-07T05:46:52;15.00;;;6.30;;
68923;SDS011;55961;52.156;20.942;2022-12-07T05:49:18;14.63;;;6.60;;
68923;SDS011;55961;52.156;20.942;2022-12-07T05:51:43;16.88;;;6.93;;
68923;SDS011;55961;52.156;20.942;2022-12-07T05:54:09;16.10;;;6.90;;
68923;SDS011;55961;52.156;20.942;2022-12-07T05:56:35;14.52;;;5.93;;
68923;SDS011;55961;52.156;20.942;2022-12-07T05:59:01;13.65;;;6.10;;
68923;SDS011;55961;52.156;20.942;2022-12-07T06:01:46;16.58;;;7.20;;
68923;SDS011;55961;52.156;20.942;2022-12-07T06:04:12;28.90;;;12.40;;
68923;SDS011;55961;52.156;20.942;2022-12-07T06:06:38;34.85;;;14.82;;
68923;SDS011;55961;52.156;20.942;2022-12-07T06:09:04;30.23;;;12.10;;
68923;SDS011;55961;52.156;20.942;2022-12-07T06:11:30;29.70;;;12.47;;
68923;SDS011;55961;52.156;20.942;2022-12-07T06:14:14;25.90;;;11.05;;
68923;SDS011;55961;52.156;20.942;2022-12-07T06:16:40;35.05;;;16.65;;
68923;SDS011;55961;52.156;20.942;2022-12-07T06:19:06;25.80;;;12.48;;
68923;SDS011;55961;52.156;20.942;2022-12-07T06:21:32;20.20;;;10.10;;
68923;SDS011;55961;52.156;20.942;2022-12-07T06:23:58;22.63;;;9.82;;
68923;SDS011;55961;52.156;20.942;2022-12-07T06:26:24;16.88;;;8.50;;
68923;SDS011;55961;52.156;20.942;2022-12-07T06:28:50;17.97;;;8.33;;
68923;SDS011;55961;52.156;20.942;2022-12-07T06:31:16;16.42;;;5.65;;
68923;SDS011;55961;52.156;20.942;2022-12-07T06:33:42;16.05;;;6.95;;
68923;SDS011;55961;52.156;20.942;2022-12-07T06:36:08;18.15;;;7.65;;
68923;SDS011;55961;52.156;20.942;2022-12-07T06:38:35;17.60;;;7.97;;
68923;SDS011;55961;52.156;20.942;2022-12-07T06:41:01;20.33;;;10.20;;
68923;SDS011;55961;52.156;20.942;2022-12-07T06:43:27;19.35;;;9.13;;
68923;SDS011;55961;52.156;20.942;2022-12-07T06:45:53;30.27;;;14.23;;
68923;SDS011;55961;52.156;20.942;2022-12-07T06:48:19;25.93;;;11.80;;
68923;SDS011;55961;52.156;20.942;2022-12-07T06:50:45;25.80;;;10.48;;
68923;SDS011;55961;52.156;20.942;2022-12-07T06:53:12;17.70;;;7.28;;
68923;SDS011;55961;52.156;20.942;2022-12-07T06:55:38;26.97;;;10.00;;
68923;SDS011;55961;52.156;20.942;2022-12-07T06:58:05;18.30;;;7.22;;
68923;SDS011;55961;52.156;20.942;2022-12-07T07:00:30;29.00;;;13.38;;
68923;SDS011;55961;52.156;20.942;2022-12-07T07:02:56;23.80;;;11.35;;
68923;SDS011;55961;52.156;20.942;2022-12-07T07:05:22;23.80;;;9.43;;
68923;SDS011;55961;52.156;20.942;2022-12-07T07:07:48;26.27;;;11.18;;
68923;SDS011;55961;52.156;20.942;2022-12-07T07:10:14;27.75;;;12.13;;
68923;SDS011;55961;52.156;20.942;2022-12-07T07:12:41;23.77;;;8.02;;
68923;SDS011;55961;52.156;20.942;2022-12-07T07:15:06;23.00;;;8.47;;
68923;SDS011;55961;52.156;20.942;2022-12-07T07:17:33;39.38;;;14.55;;
68923;SDS011;55961;52.156;20.942;2022-12-07T07:19:58;24.67;;;9.97;;
68923;SDS011;55961;52.156;20.942;2022-12-07T07:22:24;18.90;;;8.20;;
68923;SDS011;55961;52.156;20.942;2022-12-07T07:24:50;17.02;;;7.28;;
68923;SDS011;55961;52.156;20.942;2022-12-07T07:27:16;13.93;;;5.43;;
68923;SDS011;55961;52.156;20.942;2022-12-07T07:29:42;13.13;;;6.13;;
68923;SDS011;55961;52.156;20.942;2022-12-07T07:32:08;14.88;;;5.75;;
68923;SDS011;55961;52.156;20.942;2022-12-07T07:34:34;9.57;;;3.37;;
68923;SDS011;55961;52.156;20.942;2022-12-07T07:37:00;14.65;;;5.50;;
68923;SDS011;55961;52.156;20.942;2022-12-07T07:39:26;21.58;;;8.13;;
68923;SDS011;55961;52.156;20.942;2022-12-07T07:41:52;21.48;;;7.82;;
68923;SDS011;55961;52.156;20.942;2022-12-07T07:44:17;37.60;;;15.00;;
68923;SDS011;55961;52.156;20.942;2022-12-07T07:46:43;35.10;;;11.63;;
68923;SDS011;55961;52.156;20.942;2022-12-07T07:49:09;23.83;;;8.93;;
68923;SDS011;55961;52.156;20.942;2022-12-07T07:51:36;21.08;;;8.40;;
68923;SDS011;55961;52.156;20.942;2022-12-07T07:54:02;17.58;;;8.60;;
68923;SDS011;55961;52.156;20.942;2022-12-07T07:56:28;20.88;;;9.02;;
68923;SDS011;55961;52.156;20.942;2022-12-07T07:58:54;22.30;;;7.80;;
68923;SDS011;55961;52.156;20.942;2022-12-07T08:01:20;16.58;;;7.45;;
68923;SDS011;55961;52.156;20.942;2022-12-07T08:03:46;11.52;;;5.38;;
68923;SDS011;55961;52.156;20.942;2022-12-07T08:06:12;20.43;;;7.73;;
68923;SDS011;55961;52.156;20.942;2022-12-07T08:08:38;20.98;;;6.38;;
68923;SDS011;55961;52.156;20.942;2022-12-07T08:11:05;16.17;;;5.32;;
68923;SDS011;55961;52.156;20.942;2022-12-07T08:13:31;21.70;;;8.60;;
68923;SDS011;55961;52.156;20.942;2022-12-07T08:15:57;11.55;;;4.20;;
68923;SDS011;55961;52.156;20.942;2022-12-07T08:18:23;17.00;;;5.55;;
68923;SDS011;55961;52.156;20.942;2022-12-07T08:20:49;21.27;;;7.35;;
68923;SDS011;55961;52.156;20.942;2022-12-07T08:23:15;17.77;;;7.10;;
68923;SDS011;55961;52.156;20.942;2022-12-07T08:25:41;15.90;;;6.28;;
68923;SDS011;55961;52.156;20.942;2022-12-07T08:28:07;19.25;;;5.60;;
68923;SDS011;55961;52.156;20.942;2022-12-07T08:30:33;13.25;;;5.28;;
68923;SDS011;55961;52.156;20.942;2022-12-07T08:32:59;17.30;;;6.27;;
68923;SDS011;55961;52.156;20.942;2022-12-07T08:35:25;14.05;;;5.43;;
68923;SDS011;55961;52.156;20.942;2022-12-07T08:37:51;21.10;;;8.35;;
68923;SDS011;55961;52.156;20.942;2022-12-07T08:40:17;22.50;;;7.85;;
68923;SDS011;55961;52.156;20.942;2022-12-07T08:42:44;11.97;;;5.27;;
68923;SDS011;55961;52.156;20.942;2022-12-07T08:45:15;17.08;;;6.55;;
68923;SDS011;55961;52.156;20.942;2022-12-07T08:47:43;16.38;;;6.75;;
68923;SDS011;55961;52.156;20.942;2022-12-07T08:50:12;16.88;;;7.10;;
68923;SDS011;55961;52.156;20.942;2022-12-07T08:52:39;17.02;;;6.93;;
68923;SDS011;55961;52.156;20.942;2022-12-07T08:55:07;16.57;;;6.63;;
68923;SDS011;55961;52.156;20.942;2022-12-07T08:57:36;17.55;;;7.32;;
68923;SDS011;55961;52.156;20.942;2022-12-07T09:00:04;22.80;;;8.95;;
68923;SDS011;55961;52.156;20.942;2022-12-07T09:02:31;20.85;;;8.63;;
68923;SDS011;55961;52.156;20.942;2022-12-07T09:04:57;34.60;;;15.35;;
68923;SDS011;55961;52.156;20.942;2022-12-07T09:07:23;29.23;;;11.07;;
68923;SDS011;55961;52.156;20.942;2022-12-07T09:09:50;26.33;;;9.40;;
68923;SDS011;55961;52.156;20.942;2022-12-07T09:12:16;23.90;;;9.27;;
68923;SDS011;55961;52.156;20.942;2022-12-07T09:14:42;31.05;;;10.43;;
68923;SDS011;55961;52.156;20.942;2022-12-07T09:17:08;32.83;;;13.45;;
68923;SDS011;55961;52.156;20.942;2022-12-07T09:19:35;23.60;;;9.10;;
68923;SDS011;55961;52.156;20.942;2022-12-07T09:22:02;17.23;;;7.17;;
68923;SDS011;55961;52.156;20.942;2022-12-07T09:24:30;29.70;;;10.27;;
68923;SDS011;55961;52.156;20.942;2022-12-07T09:26:57;29.95;;;10.93;;
68923;SDS011;55961;52.156;20.942;2022-12-07T09:29:23;24.10;;;8.93;;
68923;SDS011;55961;52.156;20.942;2022-12-07T09:31:50;18.45;;;7.22;;
68923;SDS011;55961;52.156;20.942;2022-12-07T09:34:17;26.20;;;9.00;;
68923;SDS011;55961;52.156;20.942;2022-12-07T09:36:43;27.27;;;9.25;;
68923;SDS011;55961;52.156;20.942;2022-12-07T09:39:09;22.98;;;6.55;;
68923;SDS011;55961;52.156;20.942;2022-12-07T09:41:39;19.15;;;7.57;;
68923;SDS011;55961;52.156;20.942;2022-12-07T09:44:09;20.20;;;6.78;;
68923;SDS011;55961;52.156;20.942;2022-12-07T09:46:38;25.30;;;9.10;;
68923;SDS011;55961;52.156;20.942;2022-12-07T09:49:20;20.95;;;7.47;;
68923;SDS011;55961;52.156;20.942;2022-12-07T09:51:59;19.80;;;7.68;;
68923;SDS011;55961;52.156;20.942;2022-12-07T09:54:37;19.23;;;6.90;;
68923;SDS011;55961;52.156;20.942;2022-12-07T09:57:08;29.48;;;9.35;;
68923;SDS011;55961;52.156;20.942;2022-12-07T09:59:37;16.27;;;6.00;;
68923;SDS011;55961;52.156;20.942;2022-12-07T10:05:07;12.50;;;5.60;;
68923;SDS011;55961;52.156;20.942;2022-12-07T10:07:41;16.85;;;6.70;;
68923;SDS011;55961;52.156;20.942;2022-12-07T10:10:14;22.63;;;7.13;;
68923;SDS011;55961;52.156;20.942;2022-12-07T10:15:23;20.17;;;7.28;;
68923;SDS011;55961;52.156;20.942;2022-12-07T10:18:20;14.07;;;5.20;;
68923;SDS011;55961;52.156;20.942;2022-12-07T10:20:59;18.67;;;6.30;;
68923;SDS011;55961;52.156;20.942;2022-12-07T10:23:37;18.88;;;6.68;;
68923;SDS011;55961;52.156;20.942;2022-12-07T10:29:01;15.88;;;5.95;;
68923;SDS011;55961;52.156;20.942;2022-12-07T10:31:39;16.80;;;6.03;;
68923;SDS011;55961;52.156;20.942;2022-12-07T10:34:14;18.15;;;6.35;;
68923;SDS011;55961;52.156;20.942;2022-12-07T10:36:49;26.83;;;9.05;;
68923;SDS011;55961;52.156;20.942;2022-12-07T10:39:19;18.73;;;6.83;;
68923;SDS011;55961;52.156;20.942;2022-12-07T10:44:25;17.45;;;6.07;;
68923;SDS011;55961;52.156;20.942;2022-12-07T10:54:51;13.63;;;4.75;;
68923;SDS011;55961;52.156;20.942;2022-12-07T11:00:16;15.30;;;6.18;;
68923;SDS011;55961;52.156;20.942;2022-12-07T11:08:14;16.55;;;6.80;;
68923;SDS011;55961;52.156;20.942;2022-12-07T11:13:17;16.48;;;6.93;;
68923;SDS011;55961;52.156;20.942;2022-12-07T11:21:44;15.60;;;6.22;;
68923;SDS011;55961;52.156;20.942;2022-12-07T11:24:14;14.52;;;5.88;;
68923;SDS011;55961;52.156;20.942;2022-12-07T11:27:03;14.40;;;6.05;;
68923;SDS011;55961;52.156;20.942;2022-12-07T11:40:43;15.57;;;6.13;;
68923;SDS011;55961;52.156;20.942;2022-12-07T11:43:21;9.48;;;3.90;;
68923;SDS011;55961;52.156;20.942;2022-12-07T11:46:03;15.57;;;6.80;;
68923;SDS011;55961;52.156;20.942;2022-12-07T11:48:40;16.02;;;6.78;;
68923;SDS011;55961;52.156;20.942;2022-12-07T11:51:12;12.02;;;5.63;;
68923;SDS011;55961;52.156;20.942;2022-12-07T11:56:15;15.02;;;5.38;;
68923;SDS011;55961;52.156;20.942;2022-12-07T12:03:47;15.98;;;7.50;;
68923;SDS011;55961;52.156;20.942;2022-12-07T12:06:15;16.92;;;7.25;;
68923;SDS011;55961;52.156;20.942;2022-12-07T12:19:40;17.52;;;7.75;;
68923;SDS011;55961;52.156;20.942;2022-12-07T12:24:43;15.67;;;6.60;;
68923;SDS011;55961;52.156;20.942;2022-12-07T12:29:59;15.88;;;6.80;;
68923;SDS011;55961;52.156;20.942;2022-12-07T12:32:34;15.35;;;6.80;;
68923;SDS011;55961;52.156;20.942;2022-12-07T12:38:20;12.60;;;6.20;;
68923;SDS011;55961;52.156;20.942;2022-12-07T12:40:49;8.48;;;4.03;;
68923;SDS011;55961;52.156;20.942;2022-12-07T12:51:40;12.97;;;7.67;;
68923;SDS011;55961;52.156;20.942;2022-12-07T12:54:12;13.10;;;9.30;;
68923;SDS011;55961;52.156;20.942;2022-12-07T12:59:24;15.95;;;7.28;;
68923;SDS011;55961;52.156;20.942;2022-12-07T13:01:56;15.75;;;6.72;;
68923;SDS011;55961;52.156;20.942;2022-12-07T13:04:39;14.20;;;5.70;;
68923;SDS011;55961;52.156;20.942;2022-12-07T13:18:04;16.43;;;6.60;;
68923;SDS011;55961;52.156;20.942;2022-12-07T13:20:58;14.23;;;6.00;;
68923;SDS011;55961;52.156;20.942;2022-12-07T13:28:41;14.82;;;6.75;;
68923;SDS011;55961;52.156;20.942;2022-12-07T13:31:14;10.00;;;4.70;;
68923;SDS011;55961;52.156;20.942;2022-12-07T13:33:51;11.88;;;4.80;;
68923;SDS011;55961;52.156;20.942;2022-12-07T13:36:18;13.88;;;6.43;;
68923;SDS011;55961;52.156;20.942;2022-12-07T13:39:10;17.15;;;7.90;;
68923;SDS011;55961;52.156;20.942;2022-12-07T13:41:52;17.08;;;8.70;;
68923;SDS011;55961;52.156;20.942;2022-12-07T13:44:22;16.10;;;7.90;;
68923;SDS011;55961;52.156;20.942;2022-12-07T13:49:54;14.05;;;5.75;;
68923;SDS011;55961;52.156;20.942;2022-12-07T13:57:30;16.00;;;7.37;;
68923;SDS011;55961;52.156;20.942;2022-12-07T14:00:04;14.10;;;6.72;;
68923;SDS011;55961;52.156;20.942;2022-12-07T14:02:33;14.55;;;6.50;;
68923;SDS011;55961;52.156;20.942;2022-12-07T14:05:08;11.80;;;5.55;;
68923;SDS011;55961;52.156;20.942;2022-12-07T14:07:49;14.05;;;5.25;;
68923;SDS011;55961;52.156;20.942;2022-12-07T14:11:02;12.40;;;5.73;;
68923;SDS011;55961;52.156;20.942;2022-12-07T14:16:00;12.43;;;5.97;;
68923;SDS011;55961;52.156;20.942;2022-12-07T14:18:28;13.82;;;8.07;;
68923;SDS011;55961;52.156;20.942;2022-12-07T14:24:02;15.53;;;6.73;;
68923;SDS011;55961;52.156;20.942;2022-12-07T14:26:28;15.07;;;6.82;;
68923;SDS011;55961;52.156;20.942;2022-12-07T14:29:17;14.13;;;7.13;;
68923;SDS011;55961;52.156;20.942;2022-12-07T14:31:52;15.25;;;6.43;;
68923;SDS011;55961;52.156;20.942;2022-12-07T14:34:20;14.88;;;8.30;;
68923;SDS011;55961;52.156;20.942;2022-12-07T14:36:46;16.50;;;7.60;;
68923;SDS011;55961;52.156;20.942;2022-12-07T14:39:12;20.48;;;8.20;;
68923;SDS011;55961;52.156;20.942;2022-12-07T14:41:38;14.13;;;6.22;;
68923;SDS011;55961;52.156;20.942;2022-12-07T14:44:17;20.67;;;9.23;;
68923;SDS011;55961;52.156;20.942;2022-12-07T14:46:45;17.00;;;6.60;;
68923;SDS011;55961;52.156;20.942;2022-12-07T14:49:11;19.90;;;10.25;;
68923;SDS011;55961;52.156;20.942;2022-12-07T14:51:37;17.30;;;8.07;;
68923;SDS011;55961;52.156;20.942;2022-12-07T14:54:06;20.70;;;11.63;;
68923;SDS011;55961;52.156;20.942;2022-12-07T14:56:38;17.02;;;9.25;;
68923;SDS011;55961;52.156;20.942;2022-12-07T14:59:04;17.30;;;8.90;;
68923;SDS011;55961;52.156;20.942;2022-12-07T15:01:29;20.23;;;9.70;;
68923;SDS011;55961;52.156;20.942;2022-12-07T15:03:55;22.20;;;9.63;;
68923;SDS011;55961;52.156;20.942;2022-12-07T15:06:21;36.53;;;17.42;;
68923;SDS011;55961;52.156;20.942;2022-12-07T15:08:47;28.20;;;14.43;;
68923;SDS011;55961;52.156;20.942;2022-12-07T15:11:13;20.67;;;9.25;;
68923;SDS011;55961;52.156;20.942;2022-12-07T15:13:43;19.77;;;9.57;;
68923;SDS011;55961;52.156;20.942;2022-12-07T15:16:28;23.37;;;10.73;;
68923;SDS011;55961;52.156;20.942;2022-12-07T15:18:54;30.30;;;14.48;;
68923;SDS011;55961;52.156;20.942;2022-12-07T15:21:20;33.33;;;14.25;;
68923;SDS011;55961;52.156;20.942;2022-12-07T15:23:46;18.75;;;8.88;;
68923;SDS011;55961;52.156;20.942;2022-12-07T15:26:12;29.47;;;13.03;;
68923;SDS011;55961;52.156;20.942;2022-12-07T15:28:39;23.98;;;10.70;;
68923;SDS011;55961;52.156;20.942;2022-12-07T15:31:14;26.13;;;12.45;;
68923;SDS011;55961;52.156;20.942;2022-12-07T15:33:42;26.02;;;11.32;;
68923;SDS011;55961;52.156;20.942;2022-12-07T15:36:12;27.52;;;11.18;;
68923;SDS011;55961;52.156;20.942;2022-12-07T15:38:49;25.13;;;12.77;;
68923;SDS011;55961;52.156;20.942;2022-12-07T15:41:15;20.55;;;10.23;;
68923;SDS011;55961;52.156;20.942;2022-12-07T15:43:42;24.17;;;12.73;;
68923;SDS011;55961;52.156;20.942;2022-12-07T15:46:34;34.30;;;17.48;;
68923;SDS011;55961;52.156;20.942;2022-12-07T15:49:03;29.73;;;15.98;;
68923;SDS011;55961;52.156;20.942;2022-12-07T15:51:30;19.73;;;8.83;;
68923;SDS011;55961;52.156;20.942;2022-12-07T15:53:57;19.27;;;9.75;;
68923;SDS011;55961;52.156;20.942;2022-12-07T15:56:23;18.92;;;9.52;;
68923;SDS011;55961;52.156;20.942;2022-12-07T15:58:49;27.85;;;16.73;;
68923;SDS011;55961;52.156;20.942;2022-12-07T16:01:16;23.83;;;10.83;;
68923;SDS011;55961;52.156;20.942;2022-12-07T16:03:44;24.77;;;13.10;;
68923;SDS011;55961;52.156;20.942;2022-12-07T16:06:11;23.33;;;12.02;;
68923;SDS011;55961;52.156;20.942;2022-12-07T16:08:43;27.52;;;13.10;;
68923;SDS011;55961;52.156;20.942;2022-12-07T16:11:09;28.23;;;12.55;;
68923;SDS011;55961;52.156;20.942;2022-12-07T16:13:35;30.87;;;13.40;;
68923;SDS011;55961;52.156;20.942;2022-12-07T16:16:03;23.25;;;10.93;;
68923;SDS011;55961;52.156;20.942;2022-12-07T16:18:30;19.85;;;8.70;;
68923;SDS011;55961;52.156;20.942;2022-12-07T16:20:56;20.07;;;10.60;;
68923;SDS011;55961;52.156;20.942;2022-12-07T16:23:22;19.02;;;8.70;;
68923;SDS011;55961;52.156;20.942;2022-12-07T16:25:47;23.80;;;11.43;;
68923;SDS011;55961;52.156;20.942;2022-12-07T16:28:13;17.48;;;7.43;;
68923;SDS011;55961;52.156;20.942;2022-12-07T16:30:39;23.70;;;11.77;;
68923;SDS011;55961;52.156;20.942;2022-12-07T16:33:05;22.23;;;10.90;;
68923;SDS011;55961;52.156;20.942;2022-12-07T16:35:31;17.02;;;7.72;;
68923;SDS011;55961;52.156;20.942;2022-12-07T16:37:57;25.37;;;10.97;;
68923;SDS011;55961;52.156;20.942;2022-12-07T16:40:23;25.83;;;11.07;;
68923;SDS011;55961;52.156;20.942;2022-12-07T16:42:49;16.75;;;8.90;;
68923;SDS011;55961;52.156;20.942;2022-12-07T16:45:14;21.70;;;10.93;;
68923;SDS011;55961;52.156;20.942;2022-12-07T16:47:41;21.77;;;10.38;;
68923;SDS011;55961;52.156;20.942;2022-12-07T16:50:07;26.58;;;11.13;;
68923;SDS011;55961;52.156;20.942;2022-12-07T16:52:33;24.50;;;11.50;;
68923;SDS011;55961;52.156;20.942;2022-12-07T16:54:59;23.90;;;11.20;;
68923;SDS011;55961;52.156;20.942;2022-12-07T16:57:25;19.55;;;9.75;;
68923;SDS011;55961;52.156;20.942;2022-12-07T16:59:51;21.37;;;10.50;;
68923;SDS011;55961;52.156;20.942;2022-12-07T17:02:18;17.07;;;8.73;;